sensor_id;sensor_type;location;lat;lon;timestamp;pressure;altitude;pressure_sealevel;temperature;humidity
13836;BME280;6988;52.614;13.500;2023-06-19T00:00:43;53989.16;;;-143.77;70.46
13836;BME280;6988;52.614;13.500;2023-06-19T00:05:35;53999.44;;;-143.77;70.84
13836;BME280;6988;52.614;13.500;2023-06-19T00:10:27;54007.63;;;-143.77;71.19
13836;BME280;6988;52.614;13.500;2023-06-19T00:15:19;54005.59;;;-143.77;71.50
13836;BME280;6988;52.614;13.500;2023-06-19T00:20:12;54013.78;;;-143.77;72.03
13836;BME280;6988;52.614;13.500;2023-06-19T00:25:05;54040.47;;;-143.77;72.72
13836;BME280;6988;52.614;13.500;2023-06-19T00:29:57;54019.94;;;-143.77;73.34
13836;BME280;6988;52.614;13.500;2023-06-19T00:34:52;54054.81;;;-143.77;72.97
13836;BME280;6988;52.614;13.500;2023-06-19T00:39:46;54024.06;;;-143.77;72.85
13836;BME280;6988;52.614;13.500;2023-06-19T00:44:37;54034.31;;;-143.77;72.97
13836;BME280;6988;52.614;13.500;2023-06-19T00:49:31;54007.63;;;-143.77;73.16
13836;BME280;6988;52.614;13.500;2023-06-19T00:54:24;54052.78;;;-143.77;72.83
13836;BME280;6988;52.614;13.500;2023-06-19T00:59:19;54046.63;;;-143.77;72.58
13836;BME280;6988;52.614;13.500;2023-06-19T01:04:12;54024.06;;;-143.77;73.15
13836;BME280;6988;52.614;13.500;2023-06-19T01:09:08;54046.63;;;-143.77;73.96
13836;BME280;6988;52.614;13.500;2023-06-19T01:14:09;54048.66;;;-143.77;74.67
13836;BME280;6988;52.614;13.500;2023-06-19T01:19:13;54015.84;;;-143.77;75.46
13836;BME280;6988;52.614;13.500;2023-06-19T01:24:08;54011.75;;;-143.77;75.83
13836;BME280;6988;52.614;13.500;2023-06-19T01:29:00;54040.47;;;-143.77;75.83
13836;BME280;6988;52.614;13.500;2023-06-19T01:33:54;54024.06;;;-143.77;75.48
13836;BME280;6988;52.614;13.500;2023-06-19T01:38:48;54013.78;;;-143.77;75.33
13836;BME280;6988;52.614;13.500;2023-06-19T01:43:42;54067.13;;;-143.77;75.05
13836;BME280;6988;52.614;13.500;2023-06-19T01:48:38;54034.31;;;-143.77;75.07
13836;BME280;6988;52.614;13.500;2023-06-19T01:53:31;54032.25;;;-143.77;75.17
13836;BME280;6988;52.614;13.500;2023-06-19T01:58:23;54024.06;;;-143.77;75.41
13836;BME280;6988;52.614;13.500;2023-06-19T02:03:19;54056.88;;;-143.77;75.79
13836;BME280;6988;52.614;13.500;2023-06-19T02:08:12;54022.00;;;-143.77;76.25
13836;BME280;6988;52.614;13.500;2023-06-19T02:13:03;54019.94;;;-143.77;76.47
13836;BME280;6988;52.614;13.500;2023-06-19T02:17:56;54050.72;;;-143.77;76.76
13836;BME280;6988;52.614;13.500;2023-06-19T02:22:51;54042.50;;;-143.77;76.72
13836;BME280;6988;52.614;13.500;2023-06-19T02:27:43;54032.25;;;-143.77;76.22
13836;BME280;6988;52.614;13.500;2023-06-19T02:32:35;54038.41;;;-143.77;76.12
13836;BME280;6988;52.614;13.500;2023-06-19T02:37:27;54007.63;;;-143.77;75.58
13836;BME280;6988;52.614;13.500;2023-06-19T02:42:21;54032.25;;;-143.77;75.79
13836;BME280;6988;52.614;13.500;2023-06-19T02:47:13;54050.72;;;-143.77;75.62
13836;BME280;6988;52.614;13.500;2023-06-19T02:52:07;54048.66;;;-143.77;76.00
13836;BME280;6988;52.614;13.500;2023-06-19T02:56:59;54069.19;;;-143.77;76.45
13836;BME280;6988;52.614;13.500;2023-06-19T03:01:53;54044.56;;;-143.77;76.94
13836;BME280;6988;52.614;13.500;2023-06-19T03:06:44;54022.00;;;-143.77;76.89
13836;BME280;6988;52.614;13.500;2023-06-19T03:11:37;54063.03;;;-143.77;77.22
13836;BME280;6988;52.614;13.500;2023-06-19T03:16:29;54032.25;;;-143.77;77.68
13836;BME280;6988;52.614;13.500;2023-06-19T03:21:22;54028.16;;;-143.77;77.99
13836;BME280;6988;52.614;13.500;2023-06-19T03:26:16;54056.88;;;-143.77;78.28
13836;BME280;6988;52.614;13.500;2023-06-19T03:31:08;54060.97;;;-143.77;78.59
13836;BME280;6988;52.614;13.500;2023-06-19T03:36:00;54026.09;;;-143.77;79.33
13836;BME280;6988;52.614;13.500;2023-06-19T03:41:09;54060.97;;;-143.77;79.84
13836;BME280;6988;52.614;13.500;2023-06-19T03:46:01;54040.47;;;-143.77;80.58
13836;BME280;6988;52.614;13.500;2023-06-19T03:50:55;54019.94;;;-143.77;80.88
13836;BME280;6988;52.614;13.500;2023-06-19T03:55:48;53980.97;;;-143.77;81.10
13836;BME280;6988;52.614;13.500;2023-06-19T04:00:41;54024.06;;;-143.77;80.52
13836;BME280;6988;52.614;13.500;2023-06-19T04:05:33;54003.53;;;-143.77;80.34
13836;BME280;6988;52.614;13.500;2023-06-19T04:10:25;54019.94;;;-143.77;79.63
13836;BME280;6988;52.614;13.500;2023-06-19T04:15:18;54030.22;;;-143.77;79.26
13836;BME280;6988;52.614;13.500;2023-06-19T04:20:12;54022.00;;;-143.77;79.64
13836;BME280;6988;52.614;13.500;2023-06-19T04:25:06;54007.63;;;-143.77;79.44
13836;BME280;6988;52.614;13.500;2023-06-19T04:29:58;54007.63;;;-143.77;79.76
13836;BME280;6988;52.614;13.500;2023-06-19T04:34:53;53987.13;;;-143.77;79.95
13836;BME280;6988;52.614;13.500;2023-06-19T04:39:46;54007.63;;;-143.77;80.06
13836;BME280;6988;52.614;13.500;2023-06-19T04:44:38;54001.47;;;-143.77;79.21
13836;BME280;6988;52.614;13.500;2023-06-19T04:49:30;54003.53;;;-143.77;78.83
13836;BME280;6988;52.614;13.500;2023-06-19T04:54:22;53997.38;;;-143.77;78.91
13836;BME280;6988;52.614;13.500;2023-06-19T04:59:16;53972.75;;;-143.77;78.46
13836;BME280;6988;52.614;13.500;2023-06-19T05:04:08;53999.44;;;-143.77;78.88
13836;BME280;6988;52.614;13.500;2023-06-19T05:09:02;53964.56;;;-143.77;79.17
13836;BME280;6988;52.614;13.500;2023-06-19T05:13:53;53985.06;;;-143.77;77.98
13836;BME280;6988;52.614;13.500;2023-06-19T05:18:47;53974.81;;;-143.77;76.03
13836;BME280;6988;52.614;13.500;2023-06-19T05:23:39;53989.16;;;-143.77;74.95
13836;BME280;6988;52.614;13.500;2023-06-19T05:28:31;53991.22;;;-143.77;75.80
13836;BME280;6988;52.614;13.500;2023-06-19T05:33:23;53964.56;;;-143.77;76.54
13836;BME280;6988;52.614;13.500;2023-06-19T05:38:16;53968.66;;;-143.77;77.28
13836;BME280;6988;52.614;13.500;2023-06-19T05:43:08;53970.72;;;-143.77;77.53
13836;BME280;6988;52.614;13.500;2023-06-19T05:48:00;53978.91;;;-143.77;77.71
13836;BME280;6988;52.614;13.500;2023-06-19T05:52:52;53933.78;;;-143.77;77.76
13836;BME280;6988;52.614;13.500;2023-06-19T05:57:46;53972.75;;;-143.77;77.64
13836;BME280;6988;52.614;13.500;2023-06-19T06:02:37;53948.13;;;-143.77;77.66
13836;BME280;6988;52.614;13.500;2023-06-19T06:07:29;53937.88;;;-143.77;77.05
13836;BME280;6988;52.614;13.500;2023-06-19T06:12:21;53983.00;;;-143.77;77.29
13836;BME280;6988;52.614;13.500;2023-06-19T06:17:14;53954.28;;;-143.77;77.11
13836;BME280;6988;52.614;13.500;2023-06-19T06:22:06;53929.69;;;-143.77;77.72
13836;BME280;6988;52.614;13.500;2023-06-19T06:26:58;53929.69;;;-143.77;76.96
13836;BME280;6988;52.614;13.500;2023-06-19T06:31:50;53925.56;;;-143.77;75.60
13836;BME280;6988;52.614;13.500;2023-06-19T06:36:45;53913.25;;;-143.77;74.91
13836;BME280;6988;52.614;13.500;2023-06-19T06:41:36;53894.78;;;-143.77;73.39
13836;BME280;6988;52.614;13.500;2023-06-19T06:46:30;53866.06;;;-143.77;72.88
13836;BME280;6988;52.614;13.500;2023-06-19T06:51:22;53921.47;;;-143.77;71.68
13836;BME280;6988;52.614;13.500;2023-06-19T06:56:15;53913.25;;;-143.77;71.28
13836;BME280;6988;52.614;13.500;2023-06-19T07:01:07;53882.50;;;-143.77;71.00
13836;BME280;6988;52.614;13.500;2023-06-19T07:05:59;53888.63;;;-143.77;71.53
13836;BME280;6988;52.614;13.500;2023-06-19T07:10:51;53884.53;;;-143.77;71.60
13836;BME280;6988;52.614;13.500;2023-06-19T07:15:45;53835.31;;;-143.77;71.20
13836;BME280;6988;52.614;13.500;2023-06-19T07:20:37;53808.63;;;-143.77;69.75
13836;BME280;6988;52.614;13.500;2023-06-19T07:25:28;53831.19;;;-143.77;69.05
13836;BME280;6988;52.614;13.500;2023-06-19T07:30:20;53814.78;;;-143.77;67.62
13836;BME280;6988;52.614;13.500;2023-06-19T07:35:14;53835.31;;;-143.77;67.83
13836;BME280;6988;52.614;13.500;2023-06-19T07:40:07;53810.69;;;-143.77;67.54
13836;BME280;6988;52.614;13.500;2023-06-19T07:44:59;53814.78;;;-143.77;66.75
13836;BME280;6988;52.614;13.500;2023-06-19T07:49:50;53808.63;;;-143.77;65.50
13836;BME280;6988;52.614;13.500;2023-06-19T07:54:54;53790.16;;;-143.77;64.56
13836;BME280;6988;52.614;13.500;2023-06-19T07:59:49;53757.34;;;-143.77;63.48
13836;BME280;6988;52.614;13.500;2023-06-19T08:04:41;53777.84;;;-143.77;62.77
13836;BME280;6988;52.614;13.500;2023-06-19T08:09:33;53755.28;;;-143.77;62.51
13836;BME280;6988;52.614;13.500;2023-06-19T08:14:26;53755.28;;;-143.77;63.48
13836;BME280;6988;52.614;13.500;2023-06-19T08:19:18;53745.03;;;-143.77;63.20
13836;BME280;6988;52.614;13.500;2023-06-19T08:24:11;53779.91;;;-143.77;62.75
13836;BME280;6988;52.614;13.500;2023-06-19T08:29:03;53724.50;;;-143.77;62.49
13836;BME280;6988;52.614;13.500;2023-06-19T08:33:56;53728.63;;;-143.77;61.99
13836;BME280;6988;52.614;13.500;2023-06-19T08:38:49;53720.41;;;-143.77;62.02
13836;BME280;6988;52.614;13.500;2023-06-19T08:43:43;53728.63;;;-143.77;61.82
13836;BME280;6988;52.614;13.500;2023-06-19T08:48:36;53716.31;;;-143.77;61.47
13836;BME280;6988;52.614;13.500;2023-06-19T08:53:31;53683.50;;;-143.77;61.28
13836;BME280;6988;52.614;13.500;2023-06-19T08:58:23;53724.50;;;-143.77;60.16
13836;BME280;6988;52.614;13.500;2023-06-19T09:03:20;53712.22;;;-143.77;59.78
13836;BME280;6988;52.614;13.500;2023-06-19T09:08:13;53724.50;;;-143.77;60.07
13836;BME280;6988;52.614;13.500;2023-06-19T09:13:08;53745.03;;;-143.77;59.47
13836;BME280;6988;52.614;13.500;2023-06-19T09:18:05;53716.31;;;-143.77;60.65
13836;BME280;6988;52.614;13.500;2023-06-19T09:22:58;53716.31;;;-143.77;61.13
13836;BME280;6988;52.614;13.500;2023-06-19T09:27:51;53701.94;;;-143.77;61.20
13836;BME280;6988;52.614;13.500;2023-06-19T09:32:44;53712.22;;;-143.77;60.56
13836;BME280;6988;52.614;13.500;2023-06-19T09:37:39;53652.72;;;-143.77;61.57
13836;BME280;6988;52.614;13.500;2023-06-19T09:42:34;53681.44;;;-143.77;63.04
13836;BME280;6988;52.614;13.500;2023-06-19T09:47:31;53654.75;;;-143.77;63.34
13836;BME280;6988;52.614;13.500;2023-06-19T09:52:25;53642.47;;;-143.77;64.17
13836;BME280;6988;52.614;13.500;2023-06-19T09:57:26;53638.34;;;-143.77;63.68
13836;BME280;6988;52.614;13.500;2023-06-19T10:02:20;53619.88;;;-143.77;63.04
13836;BME280;6988;52.614;13.500;2023-06-19T10:07:20;53601.44;;;-143.77;59.40
13836;BME280;6988;52.614;13.500;2023-06-19T10:12:14;53607.59;;;-143.77;59.69
13836;BME280;6988;52.614;13.500;2023-06-19T10:17:09;53617.84;;;-143.77;58.44
13836;BME280;6988;52.614;13.500;2023-06-19T10:22:03;53634.25;;;-143.77;58.33
13836;BME280;6988;52.614;13.500;2023-06-19T10:26:57;53591.16;;;-143.77;59.14
13836;BME280;6988;52.614;13.500;2023-06-19T10:31:51;53576.81;;;-143.77;59.49
13836;BME280;6988;52.614;13.500;2023-06-19T10:36:43;53552.19;;;-143.77;58.51
13836;BME280;6988;52.614;13.500;2023-06-19T10:41:34;53543.97;;;-143.77;57.09
13836;BME280;6988;52.614;13.500;2023-06-19T10:46:30;53527.56;;;-143.77;56.97
13836;BME280;6988;52.614;13.500;2023-06-19T10:51:24;53480.38;;;-143.77;55.84
13836;BME280;6988;52.614;13.500;2023-06-19T10:56:21;53523.47;;;-143.77;55.21
13836;BME280;6988;52.614;13.500;2023-06-19T11:01:13;53484.50;;;-143.77;55.34
13836;BME280;6988;52.614;13.500;2023-06-19T11:06:05;53527.56;;;-143.77;55.47
13836;BME280;6988;52.614;13.500;2023-06-19T11:10:58;53515.25;;;-143.77;54.44
13836;BME280;6988;52.614;13.500;2023-06-19T11:15:50;53525.53;;;-143.77;53.88
13836;BME280;6988;52.614;13.500;2023-06-19T11:20:47;53531.69;;;-143.77;53.21
13836;BME280;6988;52.614;13.500;2023-06-19T11:25:41;53523.47;;;-143.77;54.63
13836;BME280;6988;52.614;13.500;2023-06-19T11:30:35;53484.50;;;-143.77;54.28
13836;BME280;6988;52.614;13.500;2023-06-19T11:35:33;53408.59;;;-143.77;53.33
13836;BME280;6988;52.614;13.500;2023-06-19T11:40:39;53437.31;;;-143.77;52.94
13836;BME280;6988;52.614;13.500;2023-06-19T11:45:32;53377.81;;;-143.77;51.42
13836;BME280;6988;52.614;13.500;2023-06-19T11:50:28;53342.94;;;-143.77;46.63
13836;BME280;6988;52.614;13.500;2023-06-19T11:55:20;53355.25;;;-143.77;46.54
13836;BME280;6988;52.614;13.500;2023-06-19T12:00:15;53324.50;;;-143.77;46.68
13836;BME280;6988;52.614;13.500;2023-06-19T12:05:08;53226.03;;;-143.77;46.01
13836;BME280;6988;52.614;13.500;2023-06-19T12:10:03;53137.81;;;-143.77;43.07
13836;BME280;6988;52.614;13.500;2023-06-19T12:15:00;53084.50;;;-143.77;42.55
13836;BME280;6988;52.614;13.500;2023-06-19T12:19:52;53168.59;;;-143.77;41.80
13836;BME280;6988;52.614;13.500;2023-06-19T12:24:44;53240.38;;;-143.77;41.85
13836;BME280;6988;52.614;13.500;2023-06-19T12:29:38;53281.41;;;-143.77;42.98
13836;BME280;6988;52.614;13.500;2023-06-19T12:34:30;53267.06;;;-143.77;41.69
13836;BME280;6988;52.614;13.500;2023-06-19T12:39:22;53252.69;;;-143.77;42.00
13836;BME280;6988;52.614;13.500;2023-06-19T12:44:15;53092.69;;;-143.77;42.28
13836;BME280;6988;52.614;13.500;2023-06-19T12:49:08;53084.50;;;-143.77;41.73
13836;BME280;6988;52.614;13.500;2023-06-19T12:54:00;53105.00;;;-143.77;39.73
13836;BME280;6988;52.614;13.500;2023-06-19T12:58:52;53076.28;;;-143.77;39.07
13836;BME280;6988;52.614;13.500;2023-06-19T13:03:44;53063.97;;;-143.77;39.33
13836;BME280;6988;52.614;13.500;2023-06-19T13:08:37;53055.78;;;-143.77;39.15
13836;BME280;6988;52.614;13.500;2023-06-19T13:13:29;53203.47;;;-143.77;38.42
13836;BME280;6988;52.614;13.500;2023-06-19T13:18:21;53252.69;;;-143.77;38.86
13836;BME280;6988;52.614;13.500;2023-06-19T13:23:13;53109.09;;;-143.77;39.19
13836;BME280;6988;52.614;13.500;2023-06-19T13:28:06;53115.25;;;-143.77;38.93
13836;BME280;6988;52.614;13.500;2023-06-19T13:32:58;53156.28;;;-143.77;38.20
13836;BME280;6988;52.614;13.500;2023-06-19T13:37:51;53143.97;;;-143.77;38.56
13836;BME280;6988;52.614;13.500;2023-06-19T13:42:43;53125.50;;;-143.77;38.55
13836;BME280;6988;52.614;13.500;2023-06-19T13:47:37;53119.34;;;-143.77;37.63
13836;BME280;6988;52.614;13.500;2023-06-19T13:52:28;53109.09;;;-143.77;37.65
13836;BME280;6988;52.614;13.500;2023-06-19T13:57:20;53129.63;;;-143.77;36.92
13836;BME280;6988;52.614;13.500;2023-06-19T14:02:12;53185.00;;;-143.77;38.26
13836;BME280;6988;52.614;13.500;2023-06-19T14:07:07;53137.81;;;-143.77;37.83
13836;BME280;6988;52.614;13.500;2023-06-19T14:11:59;53205.50;;;-143.77;37.62
13836;BME280;6988;52.614;13.500;2023-06-19T14:16:51;53215.78;;;-143.77;37.66
13836;BME280;6988;52.614;13.500;2023-06-19T14:21:43;53199.34;;;-143.77;38.04
13836;BME280;6988;52.614;13.500;2023-06-19T14:26:36;53162.44;;;-143.77;37.50
13836;BME280;6988;52.614;13.500;2023-06-19T14:31:28;53195.25;;;-143.77;38.15
13836;BME280;6988;52.614;13.500;2023-06-19T14:36:19;53178.84;;;-143.77;38.31
13836;BME280;6988;52.614;13.500;2023-06-19T14:41:11;53201.41;;;-143.77;37.66
13836;BME280;6988;52.614;13.500;2023-06-19T14:46:04;53191.16;;;-143.77;37.64
13836;BME280;6988;52.614;13.500;2023-06-19T14:50:56;53152.19;;;-143.77;38.10
13836;BME280;6988;52.614;13.500;2023-06-19T14:55:48;53133.72;;;-143.77;37.84
13836;BME280;6988;52.614;13.500;2023-06-19T15:00:41;53182.94;;;-143.77;37.68
13836;BME280;6988;52.614;13.500;2023-06-19T15:05:35;53199.34;;;-143.77;37.46
13836;BME280;6988;52.614;13.500;2023-06-19T15:10:26;53187.06;;;-143.77;38.15
13836;BME280;6988;52.614;13.500;2023-06-19T15:15:18;53137.81;;;-143.77;38.01
13836;BME280;6988;52.614;13.500;2023-06-19T15:20:11;53139.88;;;-143.77;37.39
13836;BME280;6988;52.614;13.500;2023-06-19T15:25:06;53156.28;;;-143.77;37.57
13836;BME280;6988;52.614;13.500;2023-06-19T15:29:58;53148.06;;;-143.77;37.56
13836;BME280;6988;52.614;13.500;2023-06-19T15:34:50;53187.06;;;-143.77;38.19
13836;BME280;6988;52.614;13.500;2023-06-19T15:39:42;53182.94;;;-143.77;38.93
13836;BME280;6988;52.614;13.500;2023-06-19T15:44:36;53205.50;;;-143.77;38.53
13836;BME280;6988;52.614;13.500;2023-06-19T15:49:28;53187.06;;;-143.77;38.32
13836;BME280;6988;52.614;13.500;2023-06-19T15:54:20;53209.63;;;-143.77;39.08
13836;BME280;6988;52.614;13.500;2023-06-19T15:59:12;53146.03;;;-143.77;39.49
13836;BME280;6988;52.614;13.500;2023-06-19T16:04:05;53148.06;;;-143.77;39.17
13836;BME280;6988;52.614;13.500;2023-06-19T16:08:57;53199.34;;;-143.77;40.37
13836;BME280;6988;52.614;13.500;2023-06-19T16:13:49;53221.91;;;-143.77;39.90
13836;BME280;6988;52.614;13.500;2023-06-19T16:18:41;53234.22;;;-143.77;39.95
13836;BME280;6988;52.614;13.500;2023-06-19T16:23:34;53236.28;;;-143.77;40.19
13836;BME280;6988;52.614;13.500;2023-06-19T16:28:27;53234.22;;;-143.77;40.70
13836;BME280;6988;52.614;13.500;2023-06-19T16:33:20;53228.06;;;-143.77;40.26
13836;BME280;6988;52.614;13.500;2023-06-19T16:38:11;53265.00;;;-143.77;40.89
13836;BME280;6988;52.614;13.500;2023-06-19T16:43:05;53250.63;;;-143.77;40.78
13836;BME280;6988;52.614;13.500;2023-06-19T16:47:58;53240.38;;;-143.77;41.36
13836;BME280;6988;52.614;13.500;2023-06-19T16:52:50;53242.44;;;-143.77;41.04
13836;BME280;6988;52.614;13.500;2023-06-19T16:57:41;53230.13;;;-143.77;41.41
13836;BME280;6988;52.614;13.500;2023-06-19T17:02:35;53279.34;;;-143.77;41.82
13836;BME280;6988;52.614;13.500;2023-06-19T17:07:27;53277.31;;;-143.77;42.31
13836;BME280;6988;52.614;13.500;2023-06-19T17:12:19;53301.91;;;-143.77;43.14
13836;BME280;6988;52.614;13.500;2023-06-19T17:17:10;53273.19;;;-143.77;43.77
13836;BME280;6988;52.614;13.500;2023-06-19T17:22:04;53322.44;;;-143.77;44.34
13836;BME280;6988;52.614;13.500;2023-06-19T17:26:56;53355.25;;;-143.77;44.22
13836;BME280;6988;52.614;13.500;2023-06-19T17:31:47;53369.63;;;-143.77;44.75
13836;BME280;6988;52.614;13.500;2023-06-19T17:36:39;53353.22;;;-143.77;45.12
13836;BME280;6988;52.614;13.500;2023-06-19T22:04:51;53843.50;;;-143.77;67.82
13836;BME280;6988;52.614;13.500;2023-06-19T22:14:42;53825.03;;;-143.77;66.69
13836;BME280;6988;52.614;13.500;2023-06-19T22:19:36;53847.59;;;-143.77;66.93
13836;BME280;6988;52.614;13.500;2023-06-19T22:24:29;53798.38;;;-143.77;67.11
13836;BME280;6988;52.614;13.500;2023-06-19T22:29:24;53827.09;;;-143.77;66.81
13836;BME280;6988;52.614;13.500;2023-06-19T22:34:16;53839.41;;;-143.77;67.09
13836;BME280;6988;52.614;13.500;2023-06-19T22:39:08;53847.59;;;-143.77;67.29
13836;BME280;6988;52.614;13.500;2023-06-19T22:44:01;53851.72;;;-143.77;67.70
13836;BME280;6988;52.614;13.500;2023-06-19T22:48:53;53829.16;;;-143.77;67.50
13836;BME280;6988;52.614;13.500;2023-06-19T22:53:46;53864.03;;;-143.77;67.23
13836;BME280;6988;52.614;13.500;2023-06-19T22:58:37;53835.31;;;-143.77;67.29
13836;BME280;6988;52.614;13.500;2023-06-19T23:03:32;53864.03;;;-143.77;67.38
13836;BME280;6988;52.614;13.500;2023-06-19T23:08:23;53835.31;;;-143.77;67.34
13836;BME280;6988;52.614;13.500;2023-06-19T23:13:16;53841.44;;;-143.77;67.26
13836;BME280;6988;52.614;13.500;2023-06-19T23:18:08;53853.75;;;-143.77;67.63
13836;BME280;6988;52.614;13.500;2023-06-19T23:23:01;53905.06;;;-143.77;68.15
13836;BME280;6988;52.614;13.500;2023-06-19T23:27:55;53896.84;;;-143.77;68.45
13836;BME280;6988;52.614;13.500;2023-06-19T23:32:47;53880.44;;;-143.77;68.65
13836;BME280;6988;52.614;13.500;2023-06-19T23:37:39;53880.44;;;-143.77;68.46
13836;BME280;6988;52.614;13.500;2023-06-19T23:42:32;53882.50;;;-143.77;68.05
13836;BME280;6988;52.614;13.500;2023-06-19T23:47:24;53890.69;;;-143.77;68.01
13836;BME280;6988;52.614;13.500;2023-06-19T23:52:16;53892.75;;;-143.77;68.06
13836;BME280;6988;52.614;13.500;2023-06-19T23:57:08;53880.44;;;-143.77;67.98
